Time;durP1;ratioP1;P1;durP2;ratioP2;P2;SDS_P1;SDS_P2;PMS_P1;PMS_P2;Temp;Humidity;BMP_temperature;BMP_pressure;BME280_temperature;BME280_humidity;BME280_pressure;Samples;Min_cycle;Max_cycle;Signal;HPM_P1;HPM_P2
2022/02/21 00:01:00;;;;;;;;;;;7.10;99.90;;;;;;5088756;28;20437;-63
2022/02/21 00:03:27;;;;;;;2.20;0.82;;;7.10;99.90;;;;;;5091868;28;19916;-63
2022/02/21 00:05:52;;;;;;;1.55;0.40;;;7.00;99.90;;;;;;5097835;28;20396;-63
2022/02/21 00:08:18;;;;;;;1.52;0.22;;;7.00;99.90;;;;;;5088993;28;20036;-62
2022/02/21 00:10:44;;;;;;;2.08;0.20;;;6.10;99.90;;;;;;5098126;28;20405;-62
2022/02/21 00:13:13;;;;;;;1.65;0.40;;;5.20;99.90;;;;;;5099713;28;20089;-62
2022/02/21 00:15:39;;;;;;;0.35;0.20;;;4.50;99.90;;;;;;5092794;28;20043;-62
2022/02/21 00:18:05;;;;;;;1.75;0.28;;;4.20;99.90;;;;;;5087958;28;20691;-62
2022/02/21 00:20:31;;;;;;;2.65;0.38;;;4.00;99.90;;;;;;5086800;28;20040;-62
2022/02/21 00:22:57;;;;;;;1.10;0.30;;;3.90;99.90;;;;;;5085353;28;20055;-61
2022/02/21 00:25:23;;;;;;;2.22;0.28;;;3.90;99.90;;;;;;5083265;28;20145;-61
2022/02/21 00:27:48;;;;;;;1.55;0.40;;;3.90;99.90;;;;;;5084692;28;20039;-61
2022/02/21 00:30:14;;;;;;;2.20;0.10;;;3.70;99.90;;;;;;5086815;28;20039;-61
2022/02/21 00:32:40;;;;;;;0.30;0.20;;;3.70;99.90;;;;;;5082644;28;20585;-61
2022/02/21 00:35:06;;;;;;;0.73;0.10;;;3.60;99.90;;;;;;5082198;28;20118;-59
2022/02/21 00:37:32;;;;;;;0.10;0.10;;;3.50;99.90;;;;;;5083263;28;20040;-61
2022/02/21 00:39:58;;;;;;;0.20;0.20;;;3.50;99.90;;;;;;5085929;28;20048;-61
2022/02/21 00:42:24;;;;;;;0.30;0.10;;;3.40;99.90;;;;;;5085566;28;20040;-61
2022/02/21 00:44:56;;;;;;;4.03;0.35;;;3.40;99.90;;;;;;5084590;28;20097;-62
2022/02/21 00:47:26;;;;;;;3.70;0.20;;;3.30;99.90;;;;;;5083147;28;20520;-62
2022/02/21 00:49:53;;;;;;;1.85;0.20;;;3.40;99.90;;;;;;5081545;28;20038;-61
2022/02/21 00:52:19;;;;;;;1.08;0.22;;;3.30;99.90;;;;;;5080169;28;20679;-61
2022/02/21 00:54:45;;;;;;;0.65;0.30;;;3.40;99.90;;;;;;5083358;28;20035;-62
2022/02/21 00:57:10;;;;;;;1.05;0.32;;;3.40;99.90;;;;;;5082908;28;20036;-61
2022/02/21 00:59:36;;;;;;;2.70;0.50;;;3.30;99.90;;;;;;5086164;28;20055;-61
2022/02/21 01:02:02;;;;;;;3.22;0.60;;;3.40;99.90;;;;;;5084550;28;20068;-61
2022/02/21 01:04:28;;;;;;;2.25;0.40;;;3.40;99.90;;;;;;5082394;28;20570;-60
2022/02/21 01:06:55;;;;;;;4.82;0.60;;;3.40;99.90;;;;;;5084520;28;20028;-62
2022/02/21 01:09:21;;;;;;;3.10;0.40;;;3.40;99.90;;;;;;5086092;28;20040;-61
2022/02/21 01:11:47;;;;;;;2.92;0.70;;;3.40;99.90;;;;;;5083091;28;20035;-60
2022/02/21 01:14:13;;;;;;;1.77;0.50;;;3.40;99.90;;;;;;5080290;28;20090;-62
2022/02/21 01:16:39;;;;;;;3.95;0.90;;;3.40;99.90;;;;;;5085224;28;20105;-62
2022/02/21 01:19:04;;;;;;;7.82;1.40;;;3.30;99.90;;;;;;5083905;28;20040;-62
2022/02/21 01:21:31;;;;;;;4.68;0.90;;;3.40;99.90;;;;;;5087204;28;20119;-61
2022/02/21 01:23:57;;;;;;;6.20;1.50;;;3.40;99.90;;;;;;5079798;28;20301;-61
2022/02/21 01:26:23;;;;;;;4.90;1.00;;;3.40;99.90;;;;;;5083669;28;20570;-62
2022/02/21 01:28:48;;;;;;;4.38;1.35;;;3.40;99.90;;;;;;5081621;28;20555;-61
2022/02/21 01:31:14;;;;;;;6.53;0.80;;;3.40;99.90;;;;;;5085661;28;20781;-61
2022/02/21 01:33:40;;;;;;;4.13;1.00;;;3.40;99.90;;;;;;5080155;28;20028;-61
2022/02/21 01:36:05;;;;;;;3.72;1.35;;;3.40;99.90;;;;;;5083562;28;20040;-61
2022/02/21 01:38:31;;;;;;;5.43;1.30;;;3.40;99.90;;;;;;5077389;28;20048;-61
2022/02/21 01:40:57;;;;;;;8.15;1.40;;;3.40;99.90;;;;;;5085965;28;20081;-62
2022/02/21 01:43:22;;;;;;;3.28;1.20;;;3.40;99.90;;;;;;5081486;28;20085;-62
2022/02/21 01:45:48;;;;;;;8.20;1.35;;;3.40;99.90;;;;;;5085915;28;20038;-62
2022/02/21 01:48:14;;;;;;;6.25;1.20;;;3.40;99.90;;;;;;5081644;28;20039;-62
2022/02/21 01:50:39;;;;;;;4.32;1.20;;;3.40;99.90;;;;;;5086011;28;20485;-62
2022/02/21 01:55:53;;;;;;;10.38;1.50;;;3.50;99.90;;;;;;5081064;28;20044;-62
2022/02/21 01:58:19;;;;;;;8.05;1.50;;;3.50;99.90;;;;;;5082599;28;20106;-60
2022/02/21 02:00:45;;;;;;;10.18;1.73;;;3.50;99.90;;;;;;5076273;28;20052;-62
2022/02/21 02:03:10;;;;;;;7.95;1.52;;;3.40;99.90;;;;;;5079887;28;20070;-61
2022/02/21 02:05:36;;;;;;;5.25;1.50;;;3.40;99.90;;;;;;5082934;28;20127;-62
2022/02/21 02:08:02;;;;;;;3.28;1.00;;;3.40;99.90;;;;;;5075126;28;20094;-63
2022/02/21 02:10:28;;;;;;;4.60;1.30;;;3.30;99.90;;;;;;5077795;28;20039;-62
2022/02/21 02:12:54;;;;;;;7.28;1.67;;;3.40;99.90;;;;;;5081655;28;20036;-62
2022/02/21 02:15:20;;;;;;;11.23;1.50;;;3.30;99.90;;;;;;5085001;28;20705;-63
2022/02/21 02:17:46;;;;;;;5.03;1.20;;;3.30;99.90;;;;;;5078662;28;20036;-62
2022/02/21 02:20:12;;;;;;;5.25;1.15;;;3.30;99.90;;;;;;5077778;28;20075;-63
2022/02/21 02:22:40;;;;;;;1.98;1.13;;;3.30;99.90;;;;;;5081241;28;20491;-61
2022/02/21 02:25:06;;;;;;;7.70;1.52;;;3.30;99.90;;;;;;5082032;28;20043;-64
2022/02/21 02:27:32;;;;;;;13.48;1.90;;;3.40;99.90;;;;;;5079090;28;20033;-63
2022/02/21 02:29:59;;;;;;;8.02;1.77;;;3.30;99.90;;;;;;5083366;28;20027;-63
2022/02/21 02:32:26;;;;;;;14.02;1.80;;;3.30;99.90;;;;;;5081159;28;20055;-61
2022/02/21 02:34:52;;;;;;;9.38;1.52;;;3.30;99.90;;;;;;5083089;28;20032;-63
2022/02/21 02:37:21;;;;;;;12.48;1.60;;;3.30;99.90;;;;;;5079033;28;20044;-62
2022/02/21 02:39:46;;;;;;;13.02;2.67;;;3.20;99.90;;;;;;5079374;28;20492;-63
2022/02/21 02:42:12;;;;;;;9.70;2.55;;;3.20;99.90;;;;;;5081421;28;20032;-64
2022/02/21 02:45:06;;;;;;;8.02;1.30;;;3.20;99.90;;;;;;5081659;28;20408;-63
2022/02/21 02:47:31;;;;;;;10.30;1.38;;;3.20;99.90;;;;;;5081690;28;20102;-62
2022/02/21 02:49:58;;;;;;;11.30;1.90;;;3.10;99.90;;;;;;5085723;28;20043;-63
2022/02/21 02:52:23;;;;;;;7.13;2.00;;;3.20;99.90;;;;;;5077553;28;20499;-63
2022/02/21 02:54:49;;;;;;;6.07;1.30;;;3.20;99.90;;;;;;5082506;28;20032;-64
2022/02/21 02:57:14;;;;;;;17.70;1.67;;;3.20;99.90;;;;;;5077750;28;20036;-61
2022/02/21 02:59:40;;;;;;;10.43;1.98;;;3.10;99.90;;;;;;5083482;28;20667;-61
2022/02/21 03:02:06;;;;;;;15.57;2.20;;;3.10;99.90;;;;;;5081524;28;20066;-61
2022/02/21 03:04:31;;;;;;;12.65;2.53;;;3.00;99.90;;;;;;5075743;28;20048;-60
2022/02/21 03:06:58;;;;;;;8.65;1.30;;;3.00;99.90;;;;;;5081678;28;20496;-62
2022/02/21 03:09:26;;;;;;;5.65;1.50;;;2.90;99.90;;;;;;5078818;28;20047;-61
2022/02/21 03:11:51;;;;;;;7.65;1.92;;;2.90;99.90;;;;;;5082128;28;20942;-61
2022/02/21 03:14:17;;;;;;;11.80;2.22;;;2.90;99.90;;;;;;5077174;28;20032;-61
2022/02/21 03:16:45;;;;;;;9.85;2.05;;;2.90;99.90;;;;;;5083117;28;20062;-62
2022/02/21 03:19:11;;;;;;;13.10;1.65;;;3.00;99.90;;;;;;5082186;28;20036;-62
2022/02/21 03:21:36;;;;;;;8.82;2.28;;;2.90;99.90;;;;;;5083433;28;20444;-61
2022/02/21 03:24:02;;;;;;;11.20;2.97;;;2.90;99.90;;;;;;5081626;28;20590;-61
2022/02/21 03:26:28;;;;;;;12.23;1.88;;;2.80;99.90;;;;;;5083767;28;20051;-62
2022/02/21 03:28:53;;;;;;;10.63;1.50;;;2.90;99.90;;;;;;5080686;28;20032;-61
2022/02/21 03:31:19;;;;;;;13.73;2.17;;;2.80;99.90;;;;;;5083436;28;20038;-61
2022/02/21 03:33:45;;;;;;;13.70;1.98;;;2.80;99.90;;;;;;5078688;28;20115;-61
2022/02/21 03:36:11;;;;;;;11.23;1.98;;;2.80;99.90;;;;;;5083270;28;20089;-62
2022/02/21 03:38:37;;;;;;;17.35;2.35;;;2.80;99.90;;;;;;5075512;28;20395;-62
2022/02/21 03:41:02;;;;;;;19.75;2.28;;;2.80;99.90;;;;;;5083627;28;20549;-62
2022/02/21 03:43:28;;;;;;;15.23;1.63;;;2.80;99.90;;;;;;5078938;28;20055;-61
2022/02/21 03:45:54;;;;;;;12.50;1.90;;;2.80;99.90;;;;;;5081845;28;20557;-61
2022/02/21 03:48:19;;;;;;;17.23;2.00;;;2.70;99.90;;;;;;5080174;28;20040;-62
2022/02/21 03:50:45;;;;;;;11.45;1.50;;;2.70;99.90;;;;;;5084729;28;20047;-62
2022/02/21 03:53:10;;;;;;;15.60;2.47;;;2.70;99.90;;;;;;5075178;28;20418;-62
2022/02/21 03:55:36;;;;;;;11.38;2.10;;;2.70;99.90;;;;;;5077392;28;20102;-62
2022/02/21 03:58:02;;;;;;;17.65;3.33;;;2.60;99.90;;;;;;5082123;28;20036;-62
2022/02/21 04:00:27;;;;;;;17.13;2.78;;;2.60;99.90;;;;;;5086566;28;20713;-61
2022/02/21 04:02:53;;;;;;;14.32;2.40;;;2.60;99.90;;;;;;5083524;28;20063;-61
2022/02/21 04:05:19;;;;;;;13.70;2.00;;;2.60;99.90;;;;;;5083276;28;20541;-63
2022/02/21 04:07:45;;;;;;;13.95;2.67;;;2.60;99.90;;;;;;5084027;28;20066;-61
2022/02/21 04:10:12;;;;;;;13.60;2.30;;;2.50;99.90;;;;;;5082535;28;20599;-61
2022/02/21 04:12:39;;;;;;;13.68;2.33;;;2.60;99.90;;;;;;5083733;28;20046;-61
2022/02/21 04:15:07;;;;;;;18.48;2.75;;;2.60;99.90;;;;;;5084470;28;20127;-61
2022/02/21 04:17:59;;;;;;;19.33;2.67;;;2.50;99.90;;;;;;5079508;28;20380;-61
2022/02/21 04:20:30;;;;;;;8.93;1.95;;;2.60;99.90;;;;;;5074032;28;20059;-62
2022/02/21 04:22:56;;;;;;;10.52;2.05;;;2.50;99.90;;;;;;5085903;28;20093;-61
2022/02/21 04:25:22;;;;;;;12.52;2.55;;;2.50;99.90;;;;;;5083967;28;20044;-61
2022/02/21 04:27:50;;;;;;;17.77;2.95;;;2.40;99.90;;;;;;5075305;28;20531;-60
2022/02/21 04:30:18;;;;;;;18.23;3.13;;;2.50;99.90;;;;;;5082520;28;20066;-61
2022/02/21 04:32:46;;;;;;;11.57;2.28;;;2.50;99.90;;;;;;5077048;28;20036;-61
2022/02/21 04:35:16;;;;;;;9.40;2.08;;;2.40;99.90;;;;;;5085169;28;20040;-61
2022/02/21 04:37:42;;;;;;;23.27;2.28;;;2.40;99.90;;;;;;5071775;28;20150;-61
2022/02/21 04:40:10;;;;;;;22.98;2.63;;;2.40;99.90;;;;;;5081549;28;20107;-61
2022/02/21 04:42:36;;;;;;;15.43;2.22;;;2.40;99.90;;;;;;5084872;28;20048;-62
2022/02/21 04:45:03;;;;;;;16.88;3.22;;;2.30;99.90;;;;;;5085250;28;20518;-62
2022/02/21 04:47:30;;;;;;;10.95;1.65;;;2.00;99.90;;;;;;5085950;28;20044;-62
2022/02/21 04:49:55;;;;;;;22.17;1.92;;;1.80;99.90;;;;;;5087510;28;20032;-62
2022/02/21 04:52:21;;;;;;;7.03;1.60;;;1.60;99.90;;;;;;5076902;28;20040;-61
2022/02/21 04:54:47;;;;;;;8.30;1.60;;;1.50;99.90;;;;;;5083142;28;20031;-61
2022/02/21 04:57:13;;;;;;;11.90;1.40;;;1.30;99.90;;;;;;5073724;28;20094;-63
2022/02/21 04:59:38;;;;;;;6.95;1.25;;;1.20;99.90;;;;;;5079705;28;20040;-60
2022/02/21 05:02:05;;;;;;;5.82;1.13;;;1.20;99.90;;;;;;5078340;28;20038;-60
2022/02/21 05:04:30;;;;;;;7.32;1.48;;;1.20;99.90;;;;;;5079076;28;20105;-61
2022/02/21 05:06:56;;;;;;;4.85;1.25;;;1.20;99.90;;;;;;5082269;28;20492;-60
2022/02/21 05:09:22;;;;;;;5.93;1.50;;;1.20;99.90;;;;;;5069007;28;20040;-60
2022/02/21 05:11:47;;;;;;;11.13;1.98;;;1.20;99.90;;;;;;5084627;28;20036;-61
2022/02/21 05:14:13;;;;;;;13.18;2.50;;;1.20;99.90;;;;;;5073419;28;20031;-60
2022/02/21 05:16:39;;;;;;;12.90;1.80;;;1.20;99.90;;;;;;5085132;28;20036;-61
2022/02/21 05:19:04;;;;;;;15.27;2.15;;;1.20;99.90;;;;;;5083541;28;20111;-61
2022/02/21 05:21:31;;;;;;;13.23;1.98;;;1.20;99.90;;;;;;5086360;28;20052;-61
2022/02/21 05:23:57;;;;;;;15.75;2.30;;;1.20;99.90;;;;;;5080740;28;20036;-61
2022/02/21 05:26:23;;;;;;;13.23;1.83;;;1.30;99.90;;;;;;5081482;28;20109;-61
2022/02/21 05:28:50;;;;;;;12.50;2.38;;;1.20;99.90;;;;;;5075404;28;20059;-61
2022/02/21 05:31:15;;;;;;;14.45;2.45;;;1.30;99.90;;;;;;5085027;28;21006;-61
2022/02/21 05:33:41;;;;;;;13.35;2.40;;;1.30;99.90;;;;;;5083457;28;20114;-60
2022/02/21 05:36:07;;;;;;;22.10;2.70;;;1.30;99.90;;;;;;5086583;28;20511;-61
2022/02/21 05:38:32;;;;;;;15.02;2.20;;;1.30;99.90;;;;;;5085573;28;20193;-65
2022/02/21 05:40:58;;;;;;;18.70;4.03;;;1.30;99.90;;;;;;5071180;28;20169;-62
2022/02/21 05:43:24;;;;;;;14.77;2.38;;;1.30;99.90;;;;;;5080484;28;20040;-62
2022/02/21 05:45:49;;;;;;;12.73;1.70;;;1.30;99.90;;;;;;5083832;28;20055;-62
2022/02/21 05:48:15;;;;;;;19.65;2.78;;;1.30;99.90;;;;;;5077780;28;20049;-62
2022/02/21 05:50:40;;;;;;;9.43;2.22;;;1.20;99.90;;;;;;5085166;28;20582;-62
2022/02/21 05:53:06;;;;;;;10.65;1.52;;;1.20;99.90;;;;;;5075950;28;20234;-62
2022/02/21 05:55:31;;;;;;;2.45;0.80;;;1.20;99.90;;;;;;5083456;28;20403;-68
2022/02/21 05:57:58;;;;;;;8.27;1.10;;;1.10;99.90;;;;;;5075098;28;20036;-59
2022/02/21 06:00:24;;;;;;;9.55;1.00;;;1.10;99.90;;;;;;5070256;28;20044;-60
2022/02/21 06:02:50;;;;;;;5.85;1.02;;;1.10;99.90;;;;;;5078335;28;20032;-60
2022/02/21 06:05:15;;;;;;;11.80;1.48;;;1.20;99.90;;;;;;5075450;28;20040;-59
2022/02/21 06:07:41;;;;;;;8.10;1.30;;;1.10;99.90;;;;;;5077854;28;20039;-60
2022/02/21 06:10:07;;;;;;;8.60;1.45;;;1.10;99.90;;;;;;5079064;28;20711;-60
2022/02/21 06:12:32;;;;;;;11.15;1.77;;;1.10;99.90;;;;;;5079987;28;20048;-61
2022/02/21 06:14:58;;;;;;;6.15;1.20;;;1.10;99.90;;;;;;5072389;28;20035;-60
2022/02/21 06:17:24;;;;;;;9.05;1.52;;;1.10;99.90;;;;;;5078984;28;20048;-60
2022/02/21 06:19:50;;;;;;;7.82;1.55;;;1.10;99.90;;;;;;5081624;28;20111;-59
2022/02/21 06:22:17;;;;;;;7.28;1.83;;;1.10;99.90;;;;;;5074803;28;20119;-60
2022/02/21 06:24:43;;;;;;;21.05;1.83;;;1.10;99.90;;;;;;5072172;28;20040;-59
2022/02/21 06:27:09;;;;;;;10.80;1.67;;;1.10;99.90;;;;;;5074215;28;20043;-58
2022/02/21 06:29:35;;;;;;;6.60;1.65;;;1.00;99.90;;;;;;5071900;28;20450;-59
2022/02/21 06:32:00;;;;;;;4.43;1.20;;;1.00;99.90;;;;;;5075827;28;20120;-61
2022/02/21 06:34:26;;;;;;;10.73;1.25;;;1.00;99.90;;;;;;5073814;28;20040;-59
2022/02/21 06:36:52;;;;;;;9.68;1.08;;;1.10;99.90;;;;;;5076194;28;20045;-57
2022/02/21 06:39:19;;;;;;;8.18;1.00;;;1.00;99.90;;;;;;5075420;28;20032;-59
2022/02/21 06:41:47;;;;;;;11.82;1.30;;;1.10;99.90;;;;;;5058891;28;20039;-60
2022/02/21 06:44:13;;;;;;;8.85;1.10;;;1.10;99.90;;;;;;5071634;28;20094;-60
2022/02/21 06:46:43;;;;;;;5.85;1.50;;;1.10;99.90;;;;;;5076286;28;20127;-61
2022/02/21 06:49:12;;;;;;;9.63;1.30;;;1.20;99.90;;;;;;5076626;28;20601;-57
2022/02/21 06:51:38;;;;;;;7.88;1.88;;;1.20;99.90;;;;;;5078405;28;20047;-60
2022/02/21 06:54:04;;;;;;;8.05;1.88;;;1.20;99.90;;;;;;5074566;28;20036;-60
2022/02/21 06:56:31;;;;;;;13.73;2.22;;;1.30;99.90;;;;;;5076616;28;20504;-62
2022/02/21 06:58:56;;;;;;;9.18;1.98;;;1.30;99.90;;;;;;5071587;28;20048;-58
2022/02/21 07:01:22;;;;;;;15.70;2.25;;;1.30;99.90;;;;;;5060773;28;20050;-60
2022/02/21 07:03:48;;;;;;;16.63;2.42;;;1.30;99.90;;;;;;5079795;28;20070;-60
2022/02/21 07:06:15;;;;;;;12.50;2.10;;;1.40;99.90;;;;;;5082785;28;20055;-60
2022/02/21 07:08:41;;;;;;;16.45;3.58;;;1.40;99.90;;;;;;5080348;28;20492;-60
2022/02/21 07:11:08;;;;;;;7.82;2.33;;;1.30;99.90;;;;;;5084790;28;20036;-60
2022/02/21 07:13:35;;;;;;;10.55;2.80;;;1.30;99.90;;;;;;5070842;28;20048;-60
2022/02/21 07:16:01;;;;;;;10.10;1.88;;;1.30;99.90;;;;;;5076392;28;20042;-60
2022/02/21 07:18:26;;;;;;;17.65;2.28;;;1.20;99.90;;;;;;5080012;28;20044;-60
2022/02/21 07:20:52;;;;;;;13.65;3.22;;;1.30;99.90;;;;;;5079606;28;20397;-60
2022/02/21 07:23:18;;;;;;;11.98;2.33;;;1.30;99.90;;;;;;5075948;28;20044;-60
2022/02/21 07:25:43;;;;;;;10.02;2.40;;;1.30;99.90;;;;;;5068945;28;20068;-61
2022/02/21 07:28:09;;;;;;;12.65;1.70;;;1.30;99.90;;;;;;5068758;28;20036;-60
2022/02/21 07:30:35;;;;;;;12.98;2.13;;;1.40;99.90;;;;;;5079243;28;20036;-60
2022/02/21 07:33:00;;;;;;;10.93;2.20;;;1.30;99.90;;;;;;5077630;28;20037;-61
2022/02/21 07:35:27;;;;;;;12.52;2.70;;;1.40;99.90;;;;;;5084599;28;20059;-60
2022/02/21 07:37:53;;;;;;;14.05;3.00;;;1.40;99.90;;;;;;5082291;28;20078;-60
2022/02/21 07:40:19;;;;;;;13.68;3.10;;;1.40;99.90;;;;;;5084218;28;20040;-61
2022/02/21 07:42:50;;;;;;;15.52;2.88;;;1.50;99.90;;;;;;5082992;28;20089;-59
2022/02/21 07:45:26;;;;;;;14.63;2.42;;;1.70;99.90;;;;;;5087374;28;20036;-58
2022/02/21 07:47:57;;;;;;;13.60;2.42;;;1.90;99.90;;;;;;5091250;28;20070;-60
2022/02/21 07:50:23;;;;;;;17.60;2.15;;;2.00;99.90;;;;;;5074672;28;20048;-60
2022/02/21 07:52:51;;;;;;;11.32;2.47;;;2.00;99.90;;;;;;5082444;28;20077;-60
2022/02/21 07:55:18;;;;;;;14.48;2.38;;;2.10;99.90;;;;;;5077179;28;20115;-60
2022/02/21 07:57:45;;;;;;;15.88;2.40;;;2.00;99.90;;;;;;5079745;28;20119;-60
2022/02/21 08:00:13;;;;;;;14.75;2.80;;;2.00;99.90;;;;;;5076817;28;20029;-58
2022/02/21 08:02:40;;;;;;;19.05;2.55;;;2.10;99.90;;;;;;5081094;28;20163;-61
2022/02/21 08:05:07;;;;;;;12.70;1.90;;;2.00;99.90;;;;;;5074169;28;20028;-60
2022/02/21 08:07:33;;;;;;;17.98;2.53;;;2.10;99.90;;;;;;5084022;28;20144;-61
2022/02/21 08:09:59;;;;;;;14.77;2.75;;;2.00;99.90;;;;;;5083050;28;20462;-59
2022/02/21 08:12:25;;;;;;;15.05;2.20;;;2.20;99.90;;;;;;5078835;28;20123;-60
2022/02/21 08:14:50;;;;;;;16.58;2.53;;;2.20;99.90;;;;;;5071652;28;20028;-60
2022/02/21 08:17:16;;;;;;;13.43;2.67;;;2.20;99.90;;;;;;5077075;28;20129;-64
2022/02/21 08:19:42;;;;;;;21.23;2.47;;;2.30;99.90;;;;;;5074865;28;20044;-63
2022/02/21 08:22:08;;;;;;;16.08;2.15;;;2.50;99.90;;;;;;5080751;28;20059;-61
2022/02/21 08:24:34;;;;;;;12.27;1.77;;;2.60;99.90;;;;;;5080852;28;20144;-61
2022/02/21 08:26:59;;;;;;;7.28;2.05;;;2.60;99.90;;;;;;5077285;28;20802;-60
2022/02/21 08:29:25;;;;;;;18.20;2.83;;;2.70;99.90;;;;;;5077228;28;20050;-61
2022/02/21 08:31:54;;;;;;;11.07;2.22;;;2.60;99.90;;;;;;5083767;28;20123;-62
2022/02/21 08:34:20;;;;;;;13.02;2.10;;;2.40;99.90;;;;;;5082435;28;20027;-61
2022/02/21 08:36:46;;;;;;;11.40;1.75;;;2.50;99.90;;;;;;5079451;28;20440;-61
2022/02/21 08:39:12;;;;;;;9.23;2.42;;;2.40;99.90;;;;;;5077236;28;20047;-61
2022/02/21 08:41:38;;;;;;;14.38;2.05;;;2.60;99.90;;;;;;5085861;28;20148;-61
2022/02/21 08:44:04;;;;;;;6.88;2.22;;;2.60;99.90;;;;;;5080889;28;20848;-61
2022/02/21 08:46:29;;;;;;;12.13;1.80;;;2.70;99.90;;;;;;5085490;28;20085;-61
2022/02/21 08:48:56;;;;;;;9.07;2.47;;;2.70;99.90;;;;;;5079742;28;20462;-61
2022/02/21 08:51:21;;;;;;;15.85;3.55;;;2.70;99.90;;;;;;5079714;28;20127;-61
2022/02/21 08:53:47;;;;;;;16.77;2.33;;;2.70;99.90;;;;;;5080565;28;20211;-60
2022/02/21 08:56:13;;;;;;;20.25;3.97;;;2.80;99.90;;;;;;5082850;28;20040;-62
2022/02/21 08:58:39;;;;;;;11.80;2.70;;;3.00;99.90;;;;;;5073878;28;20044;-61
2022/02/21 09:01:05;;;;;;;17.48;3.25;;;3.00;99.90;;;;;;5080691;28;20054;-61
2022/02/21 09:03:30;;;;;;;12.10;2.67;;;3.20;99.90;;;;;;5081581;28;20032;-61
2022/02/21 09:05:56;;;;;;;15.55;2.80;;;3.30;99.90;;;;;;5086272;28;20071;-60
2022/02/21 09:08:22;;;;;;;17.50;3.80;;;3.10;99.90;;;;;;5081990;28;20071;-62
2022/02/21 09:10:47;;;;;;;16.35;4.13;;;3.00;99.90;;;;;;5083985;28;20036;-61
2022/02/21 09:13:13;;;;;;;16.73;3.67;;;2.90;99.90;;;;;;5080676;28;20040;-62
2022/02/21 09:15:39;;;;;;;16.90;3.50;;;2.80;99.90;;;;;;5086021;28;20732;-61
2022/02/21 09:18:06;;;;;;;15.90;3.35;;;2.80;99.90;;;;;;5080896;28;20064;-62
2022/02/21 09:20:32;;;;;;;23.85;3.20;;;2.90;99.90;;;;;;5086471;28;20071;-60
2022/02/21 09:22:58;;;;;;;20.10;3.63;;;3.00;99.90;;;;;;5082473;28;20036;-61
2022/02/21 09:25:24;;;;;;;11.63;2.63;;;3.10;99.90;;;;;;5083309;28;20686;-61
2022/02/21 09:27:51;;;;;;;12.35;2.90;;;3.10;99.90;;;;;;5075113;28;20051;-60
2022/02/21 09:30:18;;;;;;;14.43;2.80;;;3.20;99.90;;;;;;5087087;28;20052;-59
2022/02/21 09:32:43;;;;;;;17.67;4.03;;;3.30;99.90;;;;;;5084232;28;20040;-61
2022/02/21 09:35:09;;;;;;;12.40;2.33;;;3.20;99.90;;;;;;5086754;28;20042;-61
2022/02/21 09:37:36;;;;;;;13.10;2.83;;;3.30;99.90;;;;;;5075769;28;20080;-62
2022/02/21 09:40:04;;;;;;;14.82;3.03;;;3.30;99.90;;;;;;5081632;28;20086;-61
2022/02/21 09:42:30;;;;;;;14.90;2.75;;;3.30;99.90;;;;;;5083451;28;20040;-61
2022/02/21 09:44:56;;;;;;;13.63;2.80;;;3.20;99.90;;;;;;5081085;28;20036;-60
2022/02/21 09:47:22;;;;;;;10.88;2.10;;;3.20;99.90;;;;;;5081866;28;20155;-61
2022/02/21 09:49:49;;;;;;;13.40;2.65;;;3.30;99.90;;;;;;5085401;28;20034;-59
2022/02/21 09:52:15;;;;;;;14.57;2.90;;;3.10;99.90;;;;;;5074944;28;20066;-60
2022/02/21 09:54:40;;;;;;;18.85;2.90;;;3.20;99.90;;;;;;5076279;28;20563;-61
2022/02/21 09:57:07;;;;;;;9.18;2.20;;;3.10;99.90;;;;;;5076161;28;20590;-61
2022/02/21 09:59:33;;;;;;;21.20;2.55;;;3.30;99.90;;;;;;5079737;28;20381;-61
2022/02/21 10:02:00;;;;;;;12.07;2.38;;;3.50;99.90;;;;;;5083759;28;20586;-61
2022/02/21 10:04:29;;;;;;;12.27;2.10;;;3.70;99.90;;;;;;5082318;28;20716;-61
2022/02/21 10:06:56;;;;;;;11.18;2.42;;;3.70;99.90;;;;;;5074781;28;20667;-60
2022/02/21 10:09:25;;;;;;;14.10;2.70;;;3.60;99.90;;;;;;5069104;28;20040;-61
2022/02/21 10:11:51;;;;;;;14.95;2.83;;;3.60;99.90;;;;;;5075338;28;20535;-61
2022/02/21 10:14:23;;;;;;;11.85;2.40;;;3.60;99.90;;;;;;5078649;28;20032;-61
2022/02/21 10:16:50;;;;;;;11.57;2.45;;;3.60;99.90;;;;;;5076864;28;20095;-61
2022/02/21 10:19:25;;;;;;;16.05;2.72;;;3.70;99.90;;;;;;5083826;28;20040;-59
2022/02/21 10:22:04;;;;;;;12.55;2.20;;;3.80;99.90;;;;;;5082938;28;20048;-60
2022/02/21 10:24:42;;;;;;;16.30;2.95;;;3.80;99.90;;;;;;5074844;28;20123;-60
2022/02/21 10:27:26;;;;;;;25.92;2.65;;;3.70;99.90;;;;;;5077602;28;20067;-62
2022/02/21 10:29:53;;;;;;;13.23;2.53;;;3.70;99.90;;;;;;5078608;28;20059;-62
2022/02/21 10:32:22;;;;;;;21.40;2.80;;;3.70;99.90;;;;;;5079634;28;20059;-61
2022/02/21 10:34:49;;;;;;;15.07;2.85;;;3.90;99.90;;;;;;5082908;28;20050;-61
2022/02/21 10:37:22;;;;;;;11.15;2.83;;;3.80;99.90;;;;;;5084390;28;20091;-61
2022/02/21 10:39:48;;;;;;;11.73;2.53;;;3.90;99.90;;;;;;5084821;28;20059;-61
2022/02/21 10:42:27;;;;;;;12.90;2.13;;;3.90;99.90;;;;;;5081632;28;20729;-62
2022/02/21 10:44:53;;;;;;;8.90;2.30;;;3.90;99.90;;;;;;5076557;28;20500;-62
2022/02/21 10:47:20;;;;;;;14.57;2.30;;;3.90;99.90;;;;;;5080905;28;20052;-60
2022/02/21 10:50:00;;;;;;;16.67;2.17;;;4.00;99.90;;;;;;5085552;28;20066;-62
2022/02/21 10:52:36;;;;;;;16.15;2.50;;;4.00;99.90;;;;;;5083546;28;20150;-62
2022/02/21 10:55:05;;;;;;;17.65;2.85;;;4.10;99.90;;;;;;5075348;28;20071;-62
2022/02/21 10:57:42;;;;;;;17.73;2.55;;;4.10;99.90;;;;;;5079864;28;20661;-63
2022/02/21 11:00:10;;;;;;;18.15;2.70;;;4.10;99.90;;;;;;5065296;28;20086;-63
2022/02/21 11:02:41;;;;;;;17.27;2.85;;;4.20;99.90;;;;;;5077293;28;20047;-63
2022/02/21 11:05:09;;;;;;;18.48;2.50;;;4.20;99.90;;;;;;5083811;28;20031;-62
2022/02/21 11:07:41;;;;;;;12.10;1.83;;;4.40;99.90;;;;;;5079984;28;20039;-61
2022/02/21 11:10:08;;;;;;;15.20;2.53;;;4.40;99.90;;;;;;5084979;28;20700;-62
2022/02/21 11:12:37;;;;;;;17.42;2.85;;;4.40;99.90;;;;;;5079048;28;20044;-61
2022/02/21 11:15:04;;;;;;;15.48;3.00;;;4.30;99.90;;;;;;5075655;28;20527;-61
2022/02/21 11:17:30;;;;;;;15.20;3.08;;;4.30;99.90;;;;;;5077974;28;20057;-63
2022/02/21 11:19:55;;;;;;;15.13;2.05;;;4.40;99.90;;;;;;5085365;28;20056;-62
2022/02/21 11:22:22;;;;;;;13.68;2.28;;;4.50;99.90;;;;;;5083276;28;20032;-61
2022/02/21 11:24:55;;;;;;;8.65;2.88;;;4.50;99.90;;;;;;5080874;28;20040;-62
2022/02/21 11:27:38;;;;;;;8.98;2.15;;;4.50;99.90;;;;;;5074874;28;20075;-62
2022/02/21 11:30:15;;;;;;;14.55;2.38;;;4.30;99.90;;;;;;5071244;28;20040;-63
2022/02/21 11:33:04;;;;;;;12.57;2.10;;;4.30;99.90;;;;;;5078663;28;20046;-62
2022/02/21 11:35:30;;;;;;;12.98;2.10;;;4.30;99.90;;;;;;5078264;28;20116;-61
2022/02/21 11:38:15;;;;;;;11.20;2.30;;;4.40;99.90;;;;;;5081013;28;20748;-61
2022/02/21 11:40:59;;;;;;;15.13;2.10;;;4.20;99.90;;;;;;5079251;28;20393;-63
2022/02/21 11:43:26;;;;;;;13.80;2.13;;;4.00;99.90;;;;;;5073601;28;20076;-62
2022/02/21 11:45:56;;;;;;;13.02;2.20;;;3.70;99.90;;;;;;5065063;28;20111;-63
2022/02/21 11:48:22;;;;;;;10.05;1.95;;;3.50;99.90;;;;;;5076484;28;20035;-62
2022/02/21 11:50:47;;;;;;;10.70;2.47;;;3.30;99.90;;;;;;5083865;28;20121;-62
2022/02/21 11:53:25;;;;;;;8.95;1.80;;;3.20;99.90;;;;;;5075321;28;20029;-63
2022/02/21 11:55:52;;;;;;;11.93;2.10;;;2.90;99.90;;;;;;5080333;28;20123;-63
2022/02/21 11:58:23;;;;;;;16.67;3.80;;;2.60;99.90;;;;;;5074293;28;20040;-62
2022/02/21 12:00:55;;;;;;;17.45;2.55;;;2.40;99.90;;;;;;5076005;28;20562;-62
2022/02/21 12:03:26;;;;;;;9.77;2.13;;;2.20;99.90;;;;;;5078020;28;20603;-63
2022/02/21 12:05:57;;;;;;;8.98;1.52;;;2.00;99.90;;;;;;5078855;28;20047;-63
2022/02/21 12:08:29;;;;;;;6.05;1.33;;;1.90;99.90;;;;;;5079125;28;20086;-63
2022/02/21 12:11:01;;;;;;;11.85;1.73;;;1.80;99.90;;;;;;5083356;28;20531;-62
2022/02/21 12:13:45;;;;;;;6.78;1.30;;;1.80;99.90;;;;;;5078800;28;20097;-62
2022/02/21 12:16:12;;;;;;;5.72;1.38;;;1.80;99.90;;;;;;5082533;28;20044;-61
2022/02/21 12:18:45;;;;;;;7.47;1.45;;;1.80;99.90;;;;;;5082982;28;20044;-62
2022/02/21 12:21:15;;;;;;;5.68;0.77;;;1.90;99.90;;;;;;5086975;28;20649;-63
2022/02/21 12:23:53;;;;;;;5.15;1.10;;;1.90;99.90;;;;;;5085307;28;20043;-63
2022/02/21 12:26:24;;;;;;;2.63;0.90;;;2.00;99.90;;;;;;5082377;28;20106;-63
2022/02/21 12:29:09;;;;;;;1.52;0.60;;;2.00;99.90;;;;;;5074534;28;20044;-62
2022/02/21 12:31:36;;;;;;;2.05;0.52;;;2.00;99.90;;;;;;5087044;28;20039;-62
2022/02/21 12:34:02;;;;;;;1.23;0.43;;;2.00;99.90;;;;;;5072243;28;20048;-62
2022/02/21 12:36:42;;;;;;;2.80;0.55;;;1.90;99.90;;;;;;5083961;28;20062;-61
2022/02/21 12:39:09;;;;;;;5.13;0.60;;;1.90;99.90;;;;;;5084309;28;20040;-62
2022/02/21 12:41:38;;;;;;;4.45;0.88;;;1.80;99.90;;;;;;5086379;28;20040;-63
2022/02/21 12:44:06;;;;;;;0.93;0.43;;;1.80;99.90;;;;;;5081592;28;20040;-64
2022/02/21 12:46:43;;;;;;;4.03;0.68;;;1.70;99.90;;;;;;5087624;28;20047;-64
2022/02/21 12:49:21;;;;;;;2.13;0.50;;;1.70;99.90;;;;;;5082221;28;20027;-62
2022/02/21 12:51:52;;;;;;;3.08;0.50;;;1.70;99.90;;;;;;5085649;28;20032;-61
2022/02/21 12:54:18;;;;;;;0.88;0.30;;;1.60;99.90;;;;;;5080724;28;20032;-63